sensor_id;sensor_type;location;lat;lon;timestamp;temperature;humidity
55219;DHT22;65463;43.864;20.136;2024-02-04T01:49:25;102.50;2227.20
55219;DHT22;65463;43.864;20.136;2024-02-04T01:51:52;102.40;2227.20
55219;DHT22;65463;43.864;20.136;2024-02-04T01:54:18;102.40;2227.20
55219;DHT22;65463;43.864;20.136;2024-02-04T01:56:46;102.50;2227.20
55219;DHT22;65463;43.864;20.136;2024-02-04T01:59:13;102.70;2227.20
55219;DHT22;65463;43.864;20.136;2024-02-04T02:01:39;102.80;2227.20
55219;DHT22;65463;43.864;20.136;2024-02-04T02:04:05;102.80;2227.20
55219;DHT22;65463;43.864;20.136;2024-02-04T02:06:31;102.80;2227.20
55219;DHT22;65463;43.864;20.136;2024-02-04T02:08:59;102.90;2227.20
55219;DHT22;65463;43.864;20.136;2024-02-04T02:16:35;103.00;2227.20
55219;DHT22;65463;43.864;20.136;2024-02-04T02:24:16;102.90;2227.20
55219;DHT22;65463;43.864;20.136;2024-02-04T02:26:44;102.90;2227.20
55219;DHT22;65463;43.864;20.136;2024-02-04T02:29:10;102.80;2227.20
55219;DHT22;65463;43.864;20.136;2024-02-04T02:31:38;102.70;2227.20
55219;DHT22;65463;43.864;20.136;2024-02-04T02:34:04;102.90;2227.20
55219;DHT22;65463;43.864;20.136;2024-02-04T02:36:45;103.00;2227.20
55219;DHT22;65463;43.864;20.136;2024-02-04T02:39:18;103.10;2227.20
55219;DHT22;65463;43.864;20.136;2024-02-04T03:06:26;103.00;2227.20
55219;DHT22;65463;43.864;20.136;2024-02-04T03:08:52;102.90;2227.20
55219;DHT22;65463;43.864;20.136;2024-02-04T03:11:18;103.00;2227.20
55219;DHT22;65463;43.864;20.136;2024-02-04T03:13:44;103.00;2227.20
55219;DHT22;65463;43.864;20.136;2024-02-04T03:16:13;103.00;2227.20
55219;DHT22;65463;43.864;20.136;2024-02-04T03:18:43;102.80;2227.20
55219;DHT22;65463;43.864;20.136;2024-02-04T03:21:16;102.50;2227.20
55219;DHT22;65463;43.864;20.136;2024-02-04T03:23:43;102.60;2227.20
55219;DHT22;65463;43.864;20.136;2024-02-04T03:26:10;102.60;2227.20
55219;DHT22;65463;43.864;20.136;2024-02-04T03:28:37;102.80;2227.20
55219;DHT22;65463;43.864;20.136;2024-02-04T05:11:51;102.60;2227.20
55219;DHT22;65463;43.864;20.136;2024-02-04T05:14:17;102.40;2227.20
55219;DHT22;65463;43.864;20.136;2024-02-04T05:16:45;102.40;2227.20
55219;DHT22;65463;43.864;20.136;2024-02-04T05:19:11;77.70;2227.20
55219;DHT22;65463;43.864;20.136;2024-02-04T05:21:39;77.70;2227.20
55219;DHT22;65463;43.864;20.136;2024-02-04T05:24:05;102.40;2227.20
55219;DHT22;65463;43.864;20.136;2024-02-04T05:26:31;102.70;2227.20
55219;DHT22;65463;43.864;20.136;2024-02-04T05:28:57;102.70;2227.20
55219;DHT22;65463;43.864;20.136;2024-02-04T05:31:23;102.70;2227.20
55219;DHT22;65463;43.864;20.136;2024-02-04T05:33:51;102.80;2227.20
55219;DHT22;65463;43.864;20.136;2024-02-04T05:36:17;103.00;2227.20
55219;DHT22;65463;43.864;20.136;2024-02-04T07:19:09;256.80;2201.60
55219;DHT22;65463;43.864;20.136;2024-02-04T09:19:09;691.50;1049.60
55219;DHT22;65463;43.864;20.136;2024-02-04T09:24:00;614.70;1075.20
55219;DHT22;65463;43.864;20.136;2024-02-04T09:26:26;665.60;1100.80
55219;DHT22;65463;43.864;20.136;2024-02-04T09:41:03;614.50;1100.80
55219;DHT22;65463;43.864;20.136;2024-02-04T09:43:32;640.50;1049.60
55219;DHT22;65463;43.864;20.136;2024-02-04T09:48:25;768.70;921.60
55219;DHT22;65463;43.864;20.136;2024-02-04T09:53:24;743.30;921.60
55219;DHT22;65463;43.864;20.136;2024-02-04T09:55:53;692.10;896.00
55219;DHT22;65463;43.864;20.136;2024-02-04T09:58:20;691.20;947.20
55219;DHT22;65463;43.864;20.136;2024-02-04T10:08:06;640.60;1049.60
55219;DHT22;65463;43.864;20.136;2024-02-04T10:17:50;615.00;1049.60
55219;DHT22;65463;43.864;20.136;2024-02-04T10:20:16;615.10;1075.20
55219;DHT22;65463;43.864;20.136;2024-02-04T10:25:09;588.80;1100.80
55219;DHT22;65463;43.864;20.136;2024-02-04T10:27:37;538.40;1100.80
55219;DHT22;65463;43.864;20.136;2024-02-04T10:30:04;563.50;1126.40
55219;DHT22;65463;43.864;20.136;2024-02-04T10:37:27;691.60;972.80
55219;DHT22;65463;43.864;20.136;2024-02-04T10:39:53;691.80;998.40
55219;DHT22;65463;43.864;20.136;2024-02-04T10:42:24;717.40;947.20
55219;DHT22;65463;43.864;20.136;2024-02-04T10:44:53;717.40;947.20
55219;DHT22;65463;43.864;20.136;2024-02-04T10:47:23;691.90;972.80
55219;DHT22;65463;43.864;20.136;2024-02-04T10:49:52;691.50;947.20
55219;DHT22;65463;43.864;20.136;2024-02-04T10:54:49;640.50;1024.00
55219;DHT22;65463;43.864;20.136;2024-02-04T10:57:20;665.60;998.40
55219;DHT22;65463;43.864;20.136;2024-02-04T11:04:43;691.40;998.40
55219;DHT22;65463;43.864;20.136;2024-02-04T11:07:13;717.10;947.20
55219;DHT22;65463;43.864;20.136;2024-02-04T11:12:11;742.70;947.20
55219;DHT22;65463;43.864;20.136;2024-02-04T11:23:01;768.80;896.00
55219;DHT22;65463;43.864;20.136;2024-02-04T11:25:49;768.30;921.60
55219;DHT22;65463;43.864;20.136;2024-02-04T11:28:16;743.10;896.00
55219;DHT22;65463;43.864;20.136;2024-02-04T11:30:45;768.10;896.00
55219;DHT22;65463;43.864;20.136;2024-02-04T11:35:39;743.00;921.60
55219;DHT22;65463;43.864;20.136;2024-02-04T11:40:35;793.70;870.40
55219;DHT22;65463;43.864;20.136;2024-02-04T11:43:13;793.60;844.80
55219;DHT22;65463;43.864;20.136;2024-02-04T11:45:40;819.30;870.40
55219;DHT22;65463;43.864;20.136;2024-02-04T11:48:15;819.60;844.80
55219;DHT22;65463;43.864;20.136;2024-02-04T11:50:42;743.20;921.60
55219;DHT22;65463;43.864;20.136;2024-02-04T11:55:36;794.10;896.00
55219;DHT22;65463;43.864;20.136;2024-02-04T11:58:04;794.00;844.80
55219;DHT22;65463;43.864;20.136;2024-02-04T12:00:35;768.70;870.40
55219;DHT22;65463;43.864;20.136;2024-02-04T12:03:02;743.20;947.20
55219;DHT22;65463;43.864;20.136;2024-02-04T12:15:14;692.00;921.60
55219;DHT22;65463;43.864;20.136;2024-02-04T12:17:40;692.00;947.20
55219;DHT22;65463;43.864;20.136;2024-02-04T12:20:06;691.30;921.60
55219;DHT22;65463;43.864;20.136;2024-02-04T12:24:59;691.30;972.80
55219;DHT22;65463;43.864;20.136;2024-02-04T12:27:26;692.10;972.80
55219;DHT22;65463;43.864;20.136;2024-02-04T12:29:52;717.40;896.00
55219;DHT22;65463;43.864;20.136;2024-02-04T12:37:14;794.30;844.80
55219;DHT22;65463;43.864;20.136;2024-02-04T12:39:40;794.50;844.80
55219;DHT22;65463;43.864;20.136;2024-02-04T12:42:05;793.60;844.80
55219;DHT22;65463;43.864;20.136;2024-02-04T12:44:32;768.90;844.80
55219;DHT22;65463;43.864;20.136;2024-02-04T13:04:21;614.50;1024.00
55219;DHT22;65463;43.864;20.136;2024-02-04T14:03:06;588.90;1177.60
55219;DHT22;65463;43.864;20.136;2024-02-04T14:05:32;588.90;1177.60
55219;DHT22;65463;43.864;20.136;2024-02-04T14:15:19;589.30;1049.60
55219;DHT22;65463;43.864;20.136;2024-02-04T14:17:45;588.90;1100.80
55219;DHT22;65463;43.864;20.136;2024-02-04T14:20:11;588.80;1100.80
55219;DHT22;65463;43.864;20.136;2024-02-04T14:34:50;538.20;1126.40
55219;DHT22;65463;43.864;20.136;2024-02-04T18:23:48;256.70;2252.80
55219;DHT22;65463;43.864;20.136;2024-02-04T18:58:30;230.40;2252.80
55219;DHT22;65463;43.864;20.136;2024-02-04T19:00:58;205.60;2252.80
55219;DHT22;65463;43.864;20.136;2024-02-04T19:03:24;230.50;2252.80
55219;DHT22;65463;43.864;20.136;2024-02-04T19:05:49;205.70;2252.80
55219;DHT22;65463;43.864;20.136;2024-02-04T19:08:15;205.60;2252.80
55219;DHT22;65463;43.864;20.136;2024-02-04T19:10:41;205.70;2252.80
55219;DHT22;65463;43.864;20.136;2024-02-04T19:13:07;205.70;2252.80
55219;DHT22;65463;43.864;20.136;2024-02-04T19:15:33;205.60;2252.80
55219;DHT22;65463;43.864;20.136;2024-02-04T19:18:00;205.60;2252.80
55219;DHT22;65463;43.864;20.136;2024-02-04T19:20:26;205.50;2252.80
55219;DHT22;65463;43.864;20.136;2024-02-04T19:22:52;205.60;2252.80
55219;DHT22;65463;43.864;20.136;2024-02-04T19:25:18;230.50;2252.80
55219;DHT22;65463;43.864;20.136;2024-02-04T19:27:46;230.60;2252.80
55219;DHT22;65463;43.864;20.136;2024-02-04T19:30:13;230.70;2252.80
55219;DHT22;65463;43.864;20.136;2024-02-04T19:32:42;230.70;2252.80
55219;DHT22;65463;43.864;20.136;2024-02-04T19:35:13;230.70;2252.80
55219;DHT22;65463;43.864;20.136;2024-02-04T19:37:40;205.60;2252.80
55219;DHT22;65463;43.864;20.136;2024-02-04T19:40:07;205.50;2252.80
55219;DHT22;65463;43.864;20.136;2024-02-04T19:42:33;205.60;2252.80
55219;DHT22;65463;43.864;20.136;2024-02-04T19:44:59;205.60;2252.80
55219;DHT22;65463;43.864;20.136;2024-02-04T19:47:24;230.40;2252.80
55219;DHT22;65463;43.864;20.136;2024-02-04T19:49:52;205.60;2252.80
55219;DHT22;65463;43.864;20.136;2024-02-04T19:52:18;205.70;2252.80
55219;DHT22;65463;43.864;20.136;2024-02-04T19:54:44;205.70;2252.80
55219;DHT22;65463;43.864;20.136;2024-02-04T19:57:10;230.50;2252.80
55219;DHT22;65463;43.864;20.136;2024-02-04T19:59:39;230.50;2252.80
55219;DHT22;65463;43.864;20.136;2024-02-04T20:02:06;230.50;2252.80
55219;DHT22;65463;43.864;20.136;2024-02-04T20:04:35;205.60;2252.80
55219;DHT22;65463;43.864;20.136;2024-02-04T20:09:31;205.10;2252.80
55219;DHT22;65463;43.864;20.136;2024-02-04T22:09:20;128.60;2252.80
55219;DHT22;65463;43.864;20.136;2024-02-04T22:11:45;128.50;2252.80
55219;DHT22;65463;43.864;20.136;2024-02-04T22:14:11;128.40;2252.80
